Portada
METAR-TAF:

METAR-TAF

Aeroports :

Diego Garcia, Territori Britànic de l'Oceà Índic

latitud: 07-18S, longitud: 072-24E, altitud: 1 m

Observació

L'informe es va fer fa 24 minuts, a les 13:55 UTC
Vent 13 kt del Oest
Temperatura 29°C
Humitat 84%
Pressió 1011 hPa
Visibilitat 10 km o més
Escasses núvols a una alçada de 2000 ft
Núvols disperses a una alçada de 5000 ft
Cel ennuvolat a una alçada de 8000 ft

METAR: FJDG 071355Z 27013KT 9999 FEW020 SCT050 BKN080 29/26 A2985 RMK SLP105 T02870258

Hora: 20:19 (14:19 UTC)

Pronòstic

L'informe es va fer fa 1 hora i 29 minuts, a les 12:50 UTC
Pronòstic vàlid del 07 a les 12 UTC al 08 a les 15 UTC
Vent 10 kt del Oest amb ràfegues de 15 kt
Visibilitat 10 km o més
Núvols disperses a una alçada de 2500 ft
Cel ennuvolat a una alçada de 8000 ft
xàfecs en les proximitats

TAF: FJDG 071250Z 0712/0815 27010G15KT 9999 VCSH SCT025 BKN080 QNH2985INS TX31/0809Z TN26/0716Z

Observacions i pronòstics meteorològics de més de 4000 aeroports (METAR i TAF).

Les estacions disponibles són els punts grocs i vermells al mapa.

Posi el ratolí al punt desitjat per veure el nom de l'estació.

Feu clic per veure les observacions i els pronòstics meteorològics.

Per canviar el mapa: feu clic els botons verds amb una creu de color negre per apropar; al botó verd amb un guió per allunyar la imatge; o en les fletxes verdes per a mapes adjacents.


METAR-TAF: